createdAt,value
2019-03-03T00:00:26.201Z,3.00
2019-03-03T00:02:53.967Z,3.00
2019-03-03T00:05:22.377Z,3.00
2019-03-03T00:07:50.786Z,3.00
2019-03-03T00:10:19.206Z,3.00
2019-03-03T00:12:47.731Z,3.00
2019-03-03T00:15:16.145Z,3.00
2019-03-03T00:17:44.634Z,3.00
2019-03-03T00:20:14.691Z,3.00
2019-03-03T00:22:44.248Z,3.00
2019-03-03T00:25:14.166Z,3.00
2019-03-03T00:27:42.538Z,2.90
2019-03-03T00:30:13.980Z,2.90
2019-03-03T00:32:42.448Z,2.90
2019-03-03T00:35:11.229Z,3.00
2019-03-03T00:37:47.442Z,3.00
2019-03-03T00:40:33.634Z,2.90
2019-03-03T00:43:03.741Z,3.00
2019-03-03T00:45:50.085Z,3.00
2019-03-03T00:48:25.932Z,2.90
2019-03-03T00:51:01.658Z,2.90
2019-03-03T00:53:48.157Z,3.00
2019-03-03T00:56:19.871Z,3.00
2019-03-03T00:58:53.029Z,3.00
2019-03-03T01:01:23.142Z,3.00
2019-03-03T01:03:59.099Z,3.00
2019-03-03T01:06:29.133Z,3.00
2019-03-03T01:09:02.398Z,3.00
2019-03-03T01:11:41.633Z,3.00
2019-03-03T01:14:11.886Z,3.00
2019-03-03T01:16:53.901Z,3.00
2019-03-03T01:19:30.280Z,2.90
2019-03-03T01:22:16.712Z,3.00
2019-03-03T01:24:58.441Z,3.00
2019-03-03T01:27:26.906Z,3.00
2019-03-03T01:29:55.324Z,3.00
2019-03-03T01:32:23.728Z,3.00
2019-03-03T01:34:52.320Z,3.00
2019-03-03T01:37:20.720Z,3.00
2019-03-03T01:39:49.098Z,3.00
2019-03-03T01:42:17.548Z,3.00
2019-03-03T01:44:45.951Z,3.00
2019-03-03T01:47:14.398Z,3.10
2019-03-03T01:49:42.842Z,3.00
2019-03-03T01:52:11.217Z,3.00
2019-03-03T01:54:39.640Z,3.00
2019-03-03T01:57:08.101Z,2.90
2019-03-03T01:59:36.469Z,2.90
2019-03-03T02:02:04.911Z,2.90
2019-03-03T02:04:33.782Z,2.90
2019-03-03T02:07:02.152Z,2.90
2019-03-03T02:09:31.802Z,3.00
2019-03-03T02:12:00.253Z,3.00
2019-03-03T02:14:28.785Z,3.00
2019-03-03T02:16:57.195Z,3.00
2019-03-03T02:19:25.623Z,3.00
2019-03-03T02:21:54.179Z,2.90
2019-03-03T02:24:22.561Z,2.90
2019-03-03T02:26:51.003Z,2.90
2019-03-03T02:29:19.386Z,2.90
2019-03-03T02:31:47.891Z,2.80
2019-03-03T02:34:16.323Z,2.80
2019-03-03T02:36:46.176Z,2.80
2019-03-03T02:39:16.319Z,2.80
2019-03-03T02:41:44.775Z,2.80
2019-03-03T02:44:13.261Z,2.90
2019-03-03T02:46:41.667Z,2.90
2019-03-03T02:49:10.078Z,2.80
2019-03-03T02:51:38.500Z,2.90
2019-03-03T02:54:06.912Z,3.00
2019-03-03T02:56:35.382Z,3.00
2019-03-03T02:59:03.956Z,3.00
2019-03-03T03:01:33.969Z,3.00
2019-03-03T03:04:02.454Z,2.90
2019-03-03T03:06:35.439Z,2.90
2019-03-03T03:09:14.483Z,3.00
2019-03-03T03:11:53.474Z,3.10
2019-03-03T03:14:32.746Z,3.00
2019-03-03T03:17:19.117Z,3.10
2019-03-03T03:19:54.673Z,3.10
2019-03-03T03:22:24.757Z,3.10
2019-03-03T03:25:14.259Z,3.10
2019-03-03T03:27:44.308Z,3.20
2019-03-03T03:30:14.654Z,3.10
2019-03-03T03:32:44.789Z,3.00
2019-03-03T03:35:18.134Z,3.00
2019-03-03T03:37:50.807Z,3.00
2019-03-03T03:40:20.898Z,3.00
2019-03-03T03:43:05.959Z,3.10
2019-03-03T03:45:44.861Z,3.10
2019-03-03T03:48:32.948Z,3.20
2019-03-03T03:51:11.944Z,3.10
2019-03-03T03:53:44.443Z,3.10
2019-03-03T03:56:14.497Z,2.90
2019-03-03T03:58:50.679Z,3.00
2019-03-03T04:01:37.097Z,3.00
2019-03-03T04:04:07.141Z,3.00
2019-03-03T04:06:37.190Z,3.00
2019-03-03T04:09:08.688Z,3.00
2019-03-03T04:11:44.733Z,2.90
2019-03-03T04:14:20.923Z,3.00
2019-03-03T04:16:50.950Z,2.90
2019-03-03T04:19:20.978Z,3.00
2019-03-03T04:21:51.033Z,3.00
2019-03-03T04:24:21.149Z,3.00
2019-03-03T04:26:57.307Z,2.90
2019-03-03T04:29:33.298Z,2.90
2019-03-03T04:32:03.313Z,3.00
2019-03-03T04:34:48.447Z,3.10
2019-03-03T04:37:30.718Z,3.10
2019-03-03T04:40:03.300Z,3.10
2019-03-03T04:42:33.446Z,3.00
2019-03-03T04:45:06.202Z,3.00
2019-03-03T04:47:51.778Z,3.00
2019-03-03T04:50:27.857Z,3.10
2019-03-03T04:53:02.916Z,3.10
2019-03-03T04:55:39.102Z,3.10
2019-03-03T04:58:09.158Z,3.10
2019-03-03T05:00:39.177Z,3.10
2019-03-03T05:03:11.983Z,3.20
2019-03-03T05:05:56.123Z,3.10
2019-03-03T05:08:26.229Z,3.10
2019-03-03T05:10:56.278Z,3.10
2019-03-03T05:13:26.335Z,3.10
2019-03-03T05:15:56.448Z,3.00
2019-03-03T05:18:28.122Z,3.00
2019-03-03T05:20:56.538Z,3.10
2019-03-03T05:23:24.950Z,3.10
2019-03-03T05:25:54.759Z,3.20
2019-03-03T05:28:23.238Z,3.20
2019-03-03T05:30:51.641Z,3.10
2019-03-03T05:33:20.057Z,3.20
2019-03-03T05:35:48.431Z,3.20
2019-03-03T05:38:17.106Z,3.10
2019-03-03T05:40:45.490Z,3.00
2019-03-03T05:43:13.938Z,3.10
2019-03-03T05:45:42.377Z,3.10
2019-03-03T05:48:10.777Z,3.00
2019-03-03T05:50:39.228Z,3.00
2019-03-03T05:53:07.662Z,3.00
2019-03-03T05:55:36.038Z,2.90
2019-03-03T05:58:04.438Z,2.90
2019-03-03T06:00:33.014Z,2.90
2019-03-03T06:03:01.406Z,2.80
2019-03-03T06:05:29.794Z,2.80
2019-03-03T06:07:58.848Z,2.80
2019-03-03T06:10:27.234Z,2.90
2019-03-03T06:12:55.619Z,2.80
2019-03-03T06:15:24.063Z,2.80
2019-03-03T06:17:52.535Z,2.80
2019-03-03T06:20:20.905Z,2.70
2019-03-03T06:22:49.328Z,2.60
2019-03-03T06:25:19.778Z,2.60
2019-03-03T06:27:48.187Z,2.60
2019-03-03T06:30:16.614Z,2.70
2019-03-03T06:32:45.001Z,2.60
2019-03-03T06:35:14.868Z,2.60
2019-03-03T06:37:43.257Z,2.70
2019-03-03T06:40:12.019Z,2.60
2019-03-03T06:42:40.413Z,2.60
2019-03-03T06:45:11.704Z,2.60
2019-03-03T06:47:40.438Z,2.50
2019-03-03T06:50:10.978Z,2.50
2019-03-03T06:52:39.531Z,2.60
2019-03-03T06:55:08.275Z,2.60
2019-03-03T06:57:36.679Z,2.60
2019-03-03T07:00:10.159Z,2.60
2019-03-03T07:02:38.410Z,2.70
2019-03-03T07:05:08.467Z,2.80
2019-03-03T07:07:36.963Z,2.70
2019-03-03T07:10:10.691Z,2.80
2019-03-03T07:12:39.119Z,2.80
2019-03-03T07:15:10.825Z,2.80
2019-03-03T07:17:39.229Z,2.80
2019-03-03T07:20:10.318Z,2.80
2019-03-03T07:22:38.742Z,2.90
2019-03-03T07:25:10.451Z,2.90
2019-03-03T07:27:50.786Z,2.90
2019-03-03T07:30:19.165Z,2.90
2019-03-03T07:32:55.260Z,2.80
2019-03-03T07:35:23.718Z,2.90
2019-03-03T07:37:52.169Z,2.90
2019-03-03T07:40:20.593Z,2.90
2019-03-03T07:42:49.375Z,3.00
2019-03-03T07:45:17.821Z,3.00
2019-03-03T07:47:46.226Z,3.00
2019-03-03T07:50:14.680Z,3.10
2019-03-03T07:52:43.189Z,3.20
2019-03-03T07:55:11.631Z,3.30
2019-03-03T07:57:40.079Z,3.40
2019-03-03T08:00:11.142Z,3.50
2019-03-03T08:02:39.650Z,3.60
2019-03-03T08:05:10.359Z,3.60
2019-03-03T08:07:38.771Z,3.60
2019-03-03T08:10:12.304Z,3.60
2019-03-03T08:12:40.714Z,3.70
2019-03-03T08:15:11.267Z,3.70
2019-03-03T08:17:39.682Z,3.80
2019-03-03T08:20:11.438Z,4.00
2019-03-03T08:22:40.082Z,4.10
2019-03-03T08:25:09.981Z,4.10
2019-03-03T08:27:41.705Z,4.00
2019-03-03T08:30:13.360Z,4.00
2019-03-03T08:32:41.855Z,4.00
2019-03-03T08:35:19.024Z,4.10
2019-03-03T08:37:47.747Z,4.00
2019-03-03T08:40:16.072Z,4.20
2019-03-03T08:42:48.848Z,4.30
2019-03-03T08:45:18.337Z,4.20
2019-03-03T08:47:57.302Z,4.10
2019-03-03T08:50:27.416Z,4.10
2019-03-03T08:53:13.995Z,4.10
2019-03-03T08:56:03.966Z,4.00
2019-03-03T08:58:36.883Z,4.00
2019-03-03T09:01:26.062Z,4.00
2019-03-03T09:03:59.121Z,3.90
2019-03-03T09:06:31.862Z,4.00
2019-03-03T09:09:05.834Z,3.80
2019-03-03T09:11:37.459Z,4.00
2019-03-03T09:14:16.562Z,3.80
2019-03-03T09:17:04.766Z,3.80
2019-03-03T09:19:51.141Z,3.80
2019-03-03T09:22:21.190Z,3.80
2019-03-03T09:24:56.927Z,3.80
2019-03-03T09:27:30.480Z,4.00
2019-03-03T09:30:16.928Z,4.10
2019-03-03T09:32:46.948Z,4.20
2019-03-03T09:35:17.015Z,4.20
2019-03-03T09:37:59.202Z,3.90
2019-03-03T09:40:45.368Z,3.90
2019-03-03T09:43:30.554Z,4.00
2019-03-03T09:46:00.606Z,3.90
2019-03-03T09:48:36.559Z,3.90
2019-03-03T09:51:06.565Z,3.90
2019-03-03T09:53:42.103Z,3.80
2019-03-03T09:56:28.413Z,3.90
2019-03-03T09:59:04.587Z,3.90
2019-03-03T10:01:51.973Z,4.00
2019-03-03T10:04:22.218Z,4.10
2019-03-03T10:06:52.275Z,4.10
2019-03-03T10:09:22.335Z,4.10
2019-03-03T10:11:58.649Z,4.10
2019-03-03T10:14:37.529Z,4.00
2019-03-03T10:17:13.808Z,4.00
2019-03-03T10:19:46.983Z,4.00
2019-03-03T10:22:17.039Z,4.10
2019-03-03T10:24:47.090Z,4.10
2019-03-03T10:27:23.229Z,4.10
2019-03-03T10:29:53.671Z,4.00
2019-03-03T10:32:23.730Z,4.00
2019-03-03T10:34:53.846Z,4.00
2019-03-03T10:37:29.788Z,4.00
2019-03-03T10:40:00.247Z,4.00
2019-03-03T10:42:45.554Z,4.00
2019-03-03T10:45:18.919Z,3.90
2019-03-03T10:47:49.012Z,3.90
2019-03-03T10:50:19.017Z,3.90
2019-03-03T10:52:49.110Z,3.90
2019-03-03T10:55:28.219Z,3.90
2019-03-03T10:58:13.258Z,4.00
2019-03-03T11:00:58.223Z,3.90
2019-03-03T11:03:40.462Z,3.90
2019-03-03T11:06:10.678Z,4.10
2019-03-03T11:08:40.691Z,4.20
2019-03-03T11:11:19.646Z,4.10
2019-03-03T11:13:56.625Z,4.20
2019-03-03T11:16:27.185Z,4.30
2019-03-03T11:18:57.164Z,4.30
2019-03-03T11:21:27.502Z,4.30
2019-03-03T11:24:09.514Z,4.30
2019-03-03T11:26:39.565Z,4.30
2019-03-03T11:29:09.741Z,4.40
2019-03-03T11:31:57.723Z,4.40
2019-03-03T11:34:29.730Z,4.40
2019-03-03T11:37:05.235Z,4.40
2019-03-03T11:39:37.988Z,4.30
2019-03-03T11:42:10.322Z,4.30
2019-03-03T11:44:52.537Z,4.40
2019-03-03T11:47:31.498Z,4.40
2019-03-03T11:50:17.879Z,4.30
2019-03-03T11:52:57.026Z,4.30
2019-03-03T11:55:29.799Z,4.40
2019-03-03T11:58:04.963Z,4.30
2019-03-03T12:00:35.042Z,4.20
2019-03-03T12:03:12.571Z,4.20
2019-03-03T12:05:59.081Z,4.10
2019-03-03T12:08:31.915Z,4.10
2019-03-03T12:11:01.334Z,4.10
2019-03-03T12:13:37.063Z,4.10
2019-03-03T12:16:16.146Z,4.10
2019-03-03T12:18:48.882Z,4.00
2019-03-03T12:21:27.904Z,3.90
2019-03-03T12:23:58.050Z,3.80
2019-03-03T12:26:37.032Z,3.90
2019-03-03T12:29:07.082Z,3.80
2019-03-03T12:31:43.673Z,3.70
2019-03-03T12:34:16.319Z,3.80
2019-03-03T12:37:04.444Z,3.70
2019-03-03T12:39:35.461Z,3.70
2019-03-03T12:42:05.547Z,3.70
2019-03-03T12:44:41.710Z,3.60
2019-03-03T12:47:11.822Z,3.60
2019-03-03T12:49:56.895Z,3.50
2019-03-03T12:52:27.014Z,3.60
2019-03-03T12:55:28.391Z,3.60
2019-03-03T12:58:04.362Z,3.60
2019-03-03T13:00:34.462Z,3.50
2019-03-03T13:03:20.706Z,3.40
2019-03-03T13:05:53.588Z,3.30
2019-03-03T13:08:26.270Z,3.30
2019-03-03T13:11:14.362Z,3.30
2019-03-03T13:13:53.023Z,3.30
2019-03-03T13:16:39.327Z,3.30
2019-03-03T13:19:12.203Z,3.30
2019-03-03T13:21:44.985Z,3.30
2019-03-03T13:24:17.263Z,3.30
2019-03-03T13:26:52.910Z,3.30
2019-03-03T13:29:25.371Z,3.30
2019-03-03T13:31:58.638Z,3.20
2019-03-03T13:34:28.659Z,3.20
2019-03-03T13:36:58.681Z,3.20
2019-03-03T13:39:28.788Z,3.20
2019-03-03T13:42:04.851Z,3.20
2019-03-03T13:44:33.270Z,3.20
2019-03-03T13:47:02.213Z,3.20
2019-03-03T13:49:30.659Z,3.20
2019-03-03T13:51:59.207Z,3.30
2019-03-03T13:54:27.759Z,3.30
2019-03-03T13:56:56.235Z,3.20
2019-03-03T13:59:24.725Z,3.20
2019-03-03T14:01:53.103Z,3.20
2019-03-03T14:04:21.638Z,3.20
2019-03-03T14:06:51.199Z,3.30
2019-03-03T14:09:19.570Z,3.20
2019-03-03T14:11:48.390Z,3.20
2019-03-03T14:14:18.028Z,3.20
2019-03-03T14:16:46.462Z,3.20
2019-03-03T14:19:14.851Z,3.20
2019-03-03T14:21:43.287Z,3.10
2019-03-03T14:24:11.809Z,3.10
2019-03-03T14:26:41.241Z,3.10
2019-03-03T14:29:09.682Z,3.20
2019-03-03T14:31:38.079Z,3.10
2019-03-03T14:34:06.522Z,3.10
2019-03-03T14:36:34.941Z,3.10
2019-03-03T14:39:04.601Z,3.10
2019-03-03T14:41:33.052Z,3.10
2019-03-03T14:44:02.550Z,3.00
2019-03-03T14:46:31.186Z,3.00
2019-03-03T14:48:59.754Z,3.00
2019-03-03T14:51:28.596Z,3.00
2019-03-03T14:53:57.594Z,2.90
2019-03-03T14:56:26.102Z,2.90
2019-03-03T14:58:54.912Z,2.80
2019-03-03T15:01:23.406Z,2.70
2019-03-03T15:03:51.783Z,2.70
2019-03-03T15:06:24.483Z,2.60
2019-03-03T15:08:51.587Z,2.50
2019-03-03T15:11:20.302Z,2.50
2019-03-03T15:13:48.748Z,2.40
2019-03-03T15:16:17.183Z,2.40
2019-03-03T15:18:45.643Z,2.40
2019-03-03T15:21:14.215Z,2.30
2019-03-03T15:23:42.770Z,2.20
2019-03-03T15:26:11.351Z,2.20
2019-03-03T15:28:41.935Z,2.20
2019-03-03T15:31:10.497Z,2.20
2019-03-03T15:33:39.327Z,2.10
2019-03-03T15:36:07.803Z,2.10
2019-03-03T15:38:36.555Z,2.10
2019-03-03T15:41:05.119Z,2.10
2019-03-03T15:43:33.537Z,2.20
2019-03-03T15:46:01.979Z,2.20
2019-03-03T15:48:30.495Z,2.20
2019-03-03T15:50:59.413Z,2.10
2019-03-03T15:53:27.794Z,2.10
2019-03-03T15:55:56.207Z,2.10
2019-03-03T15:58:24.863Z,2.00
2019-03-03T16:00:54.844Z,2.00
2019-03-03T16:03:23.211Z,2.00
2019-03-03T16:05:51.636Z,2.10
2019-03-03T16:08:20.280Z,2.10
2019-03-03T16:10:48.664Z,2.00
2019-03-03T16:13:17.091Z,2.10
2019-03-03T16:15:45.510Z,2.10
2019-03-03T16:18:13.972Z,2.10
2019-03-03T16:20:42.533Z,2.00
2019-03-03T16:23:11.456Z,2.00
2019-03-03T16:25:39.903Z,1.90
2019-03-03T16:28:08.338Z,1.90
2019-03-03T16:30:38.274Z,2.00
2019-03-03T16:33:06.582Z,2.00
2019-03-03T16:35:35.032Z,2.00
2019-03-03T16:38:03.507Z,2.10
2019-03-03T16:40:39.292Z,2.10
2019-03-03T16:43:02.025Z,2.10
2019-03-03T16:45:30.487Z,2.10
2019-03-03T16:47:59.034Z,2.20
2019-03-03T16:50:27.486Z,2.20
2019-03-03T16:52:56.186Z,2.20
2019-03-03T16:55:24.750Z,2.20
2019-03-03T16:57:53.216Z,2.20
2019-03-03T17:00:28.604Z,2.30
2019-03-03T17:02:56.973Z,2.30
2019-03-03T17:05:30.090Z,2.30
2019-03-03T17:07:58.558Z,2.30
2019-03-03T17:10:27.014Z,2.30
2019-03-03T17:12:55.460Z,2.30
2019-03-03T17:15:26.456Z,2.40
2019-03-03T17:17:56.506Z,2.40
2019-03-03T17:20:24.882Z,2.50
2019-03-03T17:22:53.274Z,2.50
2019-03-03T17:25:28.666Z,2.50
2019-03-03T17:27:57.248Z,2.50
2019-03-03T17:30:28.212Z,2.50
2019-03-03T17:32:58.273Z,2.60
2019-03-03T17:35:26.836Z,2.60
2019-03-03T17:37:56.653Z,2.70
2019-03-03T17:40:26.760Z,2.70
2019-03-03T17:42:55.186Z,2.70
2019-03-03T17:45:24.405Z,2.70
2019-03-03T17:47:52.920Z,2.70
2019-03-03T17:50:29.461Z,2.80
2019-03-03T17:52:57.902Z,2.80
2019-03-03T17:55:26.579Z,2.80
2019-03-03T17:57:55.003Z,2.90
2019-03-03T18:00:41.169Z,2.80
2019-03-03T18:03:09.787Z,2.90
2019-03-03T18:05:38.181Z,2.90
2019-03-03T18:08:06.980Z,2.90
2019-03-03T18:10:35.380Z,2.90
2019-03-03T18:13:03.739Z,3.00
2019-03-03T18:15:32.194Z,3.00
2019-03-03T18:18:00.686Z,3.10
2019-03-03T18:20:29.060Z,3.10
2019-03-03T18:22:57.587Z,3.10
2019-03-03T18:25:25.990Z,3.20
2019-03-03T18:27:54.705Z,3.20
2019-03-03T18:30:27.428Z,3.20
2019-03-03T18:32:55.194Z,3.20
2019-03-03T18:35:23.835Z,3.30
2019-03-03T18:37:52.388Z,3.30
2019-03-03T18:40:25.257Z,3.30
2019-03-03T18:42:54.854Z,3.40
2019-03-03T18:45:23.959Z,3.40
2019-03-03T18:47:52.442Z,3.40
2019-03-03T18:50:26.142Z,3.50
2019-03-03T18:52:55.688Z,3.50
2019-03-03T18:55:24.048Z,3.50
2019-03-03T18:57:52.683Z,3.60
2019-03-03T19:00:24.136Z,3.60
2019-03-03T19:02:53.273Z,3.60
2019-03-03T19:05:21.710Z,3.70
2019-03-03T19:07:50.200Z,3.60
2019-03-03T19:10:25.342Z,3.70
2019-03-03T19:12:55.252Z,3.80
2019-03-03T19:15:23.960Z,3.70
2019-03-03T19:17:52.304Z,3.80
2019-03-03T19:20:21.775Z,3.80
2019-03-03T19:22:50.309Z,3.90
2019-03-03T19:25:18.736Z,3.90
2019-03-03T19:27:47.141Z,3.90
2019-03-03T19:30:21.543Z,4.00
2019-03-03T19:32:53.191Z,4.00
2019-03-03T19:35:21.692Z,4.10
2019-03-03T19:37:50.098Z,4.00
2019-03-03T19:40:18.560Z,4.10
2019-03-03T19:42:46.963Z,4.10
2019-03-03T19:45:18.738Z,4.10
2019-03-03T19:47:47.213Z,4.10
2019-03-03T19:50:15.655Z,4.10
2019-03-03T19:52:44.075Z,4.10
2019-03-03T19:55:15.332Z,4.20
2019-03-03T19:57:54.619Z,4.20
2019-03-03T20:00:43.205Z,4.20
2019-03-03T20:03:11.572Z,4.20
2019-03-03T20:05:40.099Z,4.30
2019-03-03T20:08:08.683Z,4.30
2019-03-03T20:10:37.306Z,4.30
2019-03-03T20:13:06.142Z,4.30
2019-03-03T20:15:35.484Z,4.30
2019-03-03T20:18:06.975Z,4.40
2019-03-03T20:20:35.546Z,4.40
2019-03-03T20:23:05.077Z,4.40
2019-03-03T20:25:35.924Z,4.40
2019-03-03T20:28:04.303Z,4.50
2019-03-03T20:30:33.495Z,4.50
2019-03-03T20:33:02.086Z,4.50
2019-03-03T20:35:30.488Z,4.50
2019-03-03T20:37:58.976Z,4.60
2019-03-03T20:40:28.322Z,4.50
2019-03-03T20:42:56.862Z,4.60
2019-03-03T20:45:29.895Z,4.60
2019-03-03T20:47:58.395Z,4.50
2019-03-03T20:50:27.782Z,4.60
2019-03-03T20:52:56.186Z,4.60
2019-03-03T20:55:26.391Z,4.60
2019-03-03T20:57:54.797Z,4.60
2019-03-03T21:00:33.711Z,4.60
2019-03-03T21:03:02.086Z,4.60
2019-03-03T21:05:30.517Z,4.60
2019-03-03T21:07:58.946Z,4.60
2019-03-03T21:10:29.819Z,4.60
2019-03-03T21:12:58.310Z,4.60
2019-03-03T21:15:26.742Z,4.70
2019-03-03T21:17:55.117Z,4.70
2019-03-03T21:20:23.909Z,4.70
2019-03-03T21:22:52.561Z,4.70
2019-03-03T21:25:20.967Z,4.70
2019-03-03T21:27:49.342Z,4.70
2019-03-03T21:30:20.314Z,4.70
2019-03-03T21:32:48.719Z,4.70
2019-03-03T21:35:17.261Z,4.70
2019-03-03T21:37:45.987Z,4.80
2019-03-03T21:40:17.337Z,4.70
2019-03-03T21:42:45.724Z,4.80
2019-03-03T21:45:19.031Z,4.80
2019-03-03T21:47:47.465Z,4.80
2019-03-03T21:50:24.427Z,4.80
2019-03-03T21:52:52.931Z,4.80
2019-03-03T21:55:21.289Z,4.80
2019-03-03T21:57:49.753Z,4.80
2019-03-03T22:00:24.213Z,4.90
2019-03-03T22:02:52.865Z,4.90
2019-03-03T22:05:21.445Z,4.90
2019-03-03T22:07:50.995Z,4.90
2019-03-03T22:10:19.403Z,4.90
2019-03-03T22:12:47.908Z,4.80
2019-03-03T22:15:16.311Z,4.80
2019-03-03T22:17:44.763Z,4.80
2019-03-03T22:20:13.234Z,4.80
2019-03-03T22:22:41.617Z,4.80
2019-03-03T22:25:13.054Z,4.80
2019-03-03T22:27:41.425Z,4.80
2019-03-03T22:30:14.751Z,4.80
2019-03-03T22:32:43.273Z,4.80
2019-03-03T22:35:11.694Z,4.90
2019-03-03T22:37:40.072Z,4.90
2019-03-03T22:40:11.759Z,4.90
2019-03-03T22:42:40.137Z,4.90
2019-03-03T22:45:11.690Z,4.90
2019-03-03T22:47:40.147Z,4.90
2019-03-03T22:50:11.557Z,4.90
2019-03-03T22:52:39.980Z,4.90
2019-03-03T22:55:13.786Z,4.90
2019-03-03T22:57:42.206Z,4.80
2019-03-03T23:00:33.332Z,4.80
2019-03-03T23:03:01.730Z,4.80
2019-03-03T23:05:54.755Z,4.80
2019-03-03T23:08:31.739Z,4.80
2019-03-03T23:11:28.812Z,4.80
2019-03-03T23:14:08.989Z,4.80
2019-03-03T23:17:05.796Z,4.90
2019-03-03T23:19:43.590Z,4.90
2019-03-03T23:22:31.682Z,4.90
2019-03-03T23:25:26.134Z,4.80
2019-03-03T23:27:54.563Z,4.80
2019-03-03T23:30:23.073Z,4.80
2019-03-03T23:32:51.507Z,4.90
2019-03-03T23:35:19.918Z,4.90
2019-03-03T23:37:48.329Z,4.90
2019-03-03T23:40:16.735Z,4.90
2019-03-03T23:42:45.462Z,4.90
2019-03-03T23:45:13.867Z,4.80
2019-03-03T23:47:42.279Z,4.80
2019-03-03T23:50:10.671Z,4.80
2019-03-03T23:52:39.325Z,4.80
2019-03-03T23:55:08.620Z,4.80
2019-03-03T23:57:37.013Z,4.80
